Terminal Aerodrome Forecast
Issued by NWS

Home | Current Version | Previous Version | Text Only | Print | Product List | Glossary On
Versions: 1 2 3 4 5 6 7 8 9 10 11 12 13 14 15 16 17
000
FTUS44 KCRP 290533
TAFALI
TAF
KALI 290533Z 2906/3006 05004KT P6SM SCT025
     FM291200 36005KT P6SM BKN020
     FM291800 03012KT P6SM VCTS BKN035CB OVC100 PROB30 2918/2922 3SM
      TSRA OVC030CB
     FM292200 09014KT P6SM SCT040 BKN150
     FM300300 09005KT P6SM SCT025 BKN250
      TEMPO 3004/3006 BKN025 OVC250=

USA.gov is the U.S. government's official web portal to all federal, state and local government web resources and services.